createdAt,value
2023-05-02T00:03:58.192Z,12.02
2023-05-02T00:09:00.753Z,8.95
2023-05-02T00:14:02.506Z,9.48
2023-05-02T00:19:04.240Z,16.98
2023-05-02T00:24:06.654Z,8.52
2023-05-02T00:29:08.834Z,9.52
2023-05-02T00:34:10.719Z,8.48
2023-05-02T00:39:12.920Z,6.57
2023-05-02T00:44:14.972Z,9.48
2023-05-02T00:49:16.760Z,8.52
2023-05-02T00:54:18.544Z,10.02
2023-05-02T00:59:20.758Z,7.05
2023-05-02T01:04:32.201Z,7.50
2023-05-02T01:14:55.940Z,11.55
2023-05-02T01:20:01.548Z,7.22
2023-05-02T01:25:21.825Z,7.32
2023-05-02T01:30:26.930Z,8.45
2023-05-02T01:35:30.671Z,8.30
2023-05-02T01:40:34.648Z,10.05
2023-05-02T01:45:38.037Z,11.50
2023-05-02T01:50:43.186Z,12.15
2023-05-02T01:55:46.510Z,10.15
2023-05-02T02:00:49.235Z,8.15
2023-05-02T02:05:53.064Z,10.40
2023-05-02T02:11:00.219Z,15.05
2023-05-02T02:16:05.145Z,17.60
2023-05-02T02:21:09.450Z,10.98
2023-05-02T02:26:13.658Z,10.10
2023-05-02T02:31:15.971Z,11.35
2023-05-02T02:36:28.266Z,14.27
2023-05-02T02:41:40.880Z,11.88
2023-05-02T02:46:51.567Z,17.60
2023-05-02T02:52:12.358Z,13.25
2023-05-02T02:57:41.243Z,12.52
2023-05-02T03:02:46.787Z,14.27
2023-05-02T03:07:48.832Z,23.05
2023-05-02T03:12:50.825Z,51.05
2023-05-02T03:17:52.971Z,30.10
2023-05-02T03:22:54.906Z,108.78
2023-05-02T03:27:58.923Z,58.28
2023-05-02T03:33:01.824Z,37.42
2023-05-02T03:38:03.820Z,98.03
2023-05-02T03:43:05.715Z,42.92
2023-05-02T03:48:07.849Z,31.67
2023-05-02T03:53:10.184Z,28.23
2023-05-02T03:58:12.140Z,20.17
2023-05-02T04:03:14.464Z,15.13
2023-05-02T04:08:17.239Z,35.20
2023-05-02T04:13:19.169Z,45.22
2023-05-02T04:18:21.187Z,30.60
2023-05-02T04:23:23.482Z,36.88
2023-05-02T04:28:25.321Z,45.42
2023-05-02T04:33:27.131Z,44.20
2023-05-02T04:38:29.369Z,56.63
2023-05-02T04:43:31.130Z,38.83
2023-05-02T04:48:33.889Z,33.15
2023-05-02T04:53:35.675Z,54.08
2023-05-02T04:58:37.728Z,45.08
2023-05-02T05:03:40.154Z,30.75
2023-05-02T05:08:42.015Z,20.55
2023-05-02T05:13:43.848Z,21.58
2023-05-02T05:18:45.552Z,17.90
2023-05-02T05:23:47.653Z,17.70
2023-05-02T05:28:50.604Z,20.35
2023-05-02T05:33:52.422Z,13.82
2023-05-02T05:38:54.359Z,23.88
2023-05-02T05:43:56.603Z,22.80
2023-05-02T05:48:58.562Z,20.17
2023-05-02T05:54:00.362Z,15.30
2023-05-02T05:59:02.168Z,21.52
2023-05-02T06:04:05.339Z,18.65
2023-05-02T06:09:07.551Z,18.08
2023-05-02T06:14:11.668Z,11.40
2023-05-02T06:19:13.655Z,11.20
2023-05-02T06:24:15.525Z,15.60
2023-05-02T06:29:17.356Z,13.15
2023-05-02T06:34:19.529Z,8.90
2023-05-02T06:39:21.424Z,11.05
2023-05-02T06:44:23.420Z,10.23
2023-05-02T06:49:26.744Z,11.30
2023-05-02T06:54:28.519Z,13.02
2023-05-02T06:59:30.393Z,11.43
2023-05-02T07:04:32.768Z,14.45
2023-05-02T07:09:35.108Z,14.30
2023-05-02T07:14:36.836Z,12.93
2023-05-02T07:19:38.750Z,11.82
2023-05-02T07:24:42.066Z,18.45
2023-05-02T07:29:44.044Z,14.55
2023-05-02T07:34:46.748Z,17.25
2023-05-02T07:39:48.705Z,15.60
2023-05-02T07:44:50.553Z,13.98
2023-05-02T07:49:53.289Z,13.43
2023-05-02T07:54:55.621Z,12.73
2023-05-02T07:59:57.464Z,13.38
2023-05-02T08:04:59.481Z,11.82
2023-05-02T08:10:01.976Z,14.77
2023-05-02T08:15:08.406Z,14.52
2023-05-02T08:20:10.640Z,14.23
2023-05-02T08:25:12.493Z,17.23
2023-05-02T08:30:14.613Z,18.23
2023-05-02T08:35:16.341Z,13.63
2023-05-02T08:40:24.652Z,16.45
2023-05-02T08:45:39.878Z,15.68
2023-05-02T08:50:45.352Z,13.85
2023-05-02T08:55:48.347Z,11.27
2023-05-02T09:00:52.446Z,13.63
2023-05-02T09:06:18.560Z,16.20
2023-05-02T09:11:21.451Z,11.43
2023-05-02T09:16:25.921Z,9.57
2023-05-02T09:21:43.405Z,11.98
2023-05-02T09:26:57.100Z,11.77
2023-05-02T09:31:58.921Z,13.25
2023-05-02T09:37:01.581Z,11.30
2023-05-02T09:42:03.579Z,12.98
2023-05-02T09:47:07.136Z,13.68
2023-05-02T09:52:14.270Z,9.88
2023-05-02T09:57:16.371Z,9.60
2023-05-02T10:02:18.979Z,8.27
2023-05-02T10:07:21.200Z,12.10
2023-05-02T10:12:26.139Z,13.65
2023-05-02T10:17:42.413Z,15.82
2023-05-02T10:22:46.147Z,9.88
2023-05-02T10:27:48.496Z,11.68
2023-05-02T10:32:51.988Z,11.40
2023-05-02T10:37:54.380Z,12.68
2023-05-02T10:42:57.650Z,12.52
2023-05-02T10:48:22.707Z,10.85
2023-05-02T10:53:39.536Z,15.23
2023-05-02T10:58:43.370Z,10.32
2023-05-02T11:03:59.398Z,8.25
2023-05-02T11:09:15.186Z,22.15
2023-05-02T11:14:26.156Z,11.35
2023-05-02T11:24:44.771Z,10.63
2023-05-02T11:29:54.012Z,8.70
2023-05-02T11:34:56.267Z,8.13
2023-05-02T11:40:14.006Z,10.07
2023-05-02T11:45:16.680Z,13.70
2023-05-02T11:50:18.622Z,6.50
2023-05-02T11:55:20.333Z,5.93
2023-05-02T12:00:28.068Z,7.47
2023-05-02T12:05:30.376Z,16.63
2023-05-02T12:10:37.528Z,21.15
2023-05-02T12:15:39.508Z,16.23
2023-05-02T12:20:41.566Z,22.67
2023-05-02T12:25:43.754Z,18.67
2023-05-02T12:30:48.370Z,19.50
2023-05-02T12:35:51.249Z,16.13
2023-05-02T12:40:57.740Z,17.33
2023-05-02T12:46:12.345Z,21.75
2023-05-02T12:51:28.879Z,18.55
2023-05-02T12:56:34.690Z,16.00
2023-05-02T13:01:36.597Z,13.15
2023-05-02T13:06:38.545Z,9.68
2023-05-02T13:11:40.447Z,6.82
2023-05-02T13:16:42.266Z,7.82
2023-05-02T13:21:44.552Z,6.07
2023-05-02T13:26:46.749Z,5.45
2023-05-02T13:31:48.702Z,5.20
2023-05-02T13:36:50.525Z,5.25
2023-05-02T13:41:52.302Z,5.25
2023-05-02T13:46:54.146Z,4.95
2023-05-02T13:51:56.045Z,4.60
2023-05-02T13:56:58.003Z,4.00
2023-05-02T14:02:00.040Z,5.18
2023-05-02T14:07:02.266Z,5.70
2023-05-02T14:12:04.261Z,8.75
2023-05-02T14:17:06.317Z,5.78
2023-05-02T14:22:08.095Z,7.90
2023-05-02T14:27:18.092Z,6.25
2023-05-02T14:32:19.961Z,8.13
2023-05-02T14:37:21.892Z,7.88
2023-05-02T14:42:23.893Z,7.38
2023-05-02T14:47:30.823Z,7.40
2023-05-02T14:52:32.638Z,6.25
2023-05-02T14:57:34.831Z,9.75
2023-05-02T15:02:36.888Z,7.45
2023-05-02T15:07:39.147Z,7.18
2023-05-02T15:12:40.885Z,8.38
2023-05-02T15:17:42.889Z,6.80
2023-05-02T15:22:44.708Z,4.80
2023-05-02T15:27:46.605Z,6.57
2023-05-02T15:32:48.506Z,4.63
2023-05-02T15:37:50.389Z,7.10
2023-05-02T15:42:52.399Z,4.00
2023-05-02T15:47:54.205Z,7.88
2023-05-02T15:52:56.202Z,4.38
2023-05-02T15:57:57.919Z,4.57
2023-05-02T16:03:00.804Z,10.55
2023-05-02T16:08:03.998Z,9.77
2023-05-02T16:13:06.298Z,9.10
2023-05-02T16:18:08.494Z,11.90
2023-05-02T16:23:10.862Z,10.77
2023-05-02T16:28:12.710Z,8.38
2023-05-02T16:33:14.540Z,8.98
2023-05-02T16:38:16.454Z,11.48
2023-05-02T16:43:18.267Z,11.13
2023-05-02T16:48:22.864Z,8.52
2023-05-02T16:53:24.963Z,9.90
2023-05-02T16:58:29.165Z,15.20
2023-05-02T17:03:31.233Z,17.48
2023-05-02T17:08:33.313Z,17.60
2023-05-02T17:13:35.304Z,39.83
2023-05-02T17:18:37.411Z,8.15
2023-05-02T17:23:39.504Z,8.15
2023-05-02T17:28:44.949Z,11.98
2023-05-02T17:33:47.578Z,8.20
2023-05-02T17:38:49.350Z,10.68
2023-05-02T17:43:51.611Z,13.93
2023-05-02T17:48:53.372Z,15.30
2023-05-02T17:53:55.731Z,11.52
2023-05-02T17:58:57.560Z,11.27
2023-05-02T18:03:59.745Z,9.80
2023-05-02T18:09:01.748Z,9.25
2023-05-02T18:14:06.008Z,15.80
2023-05-02T18:19:08.318Z,20.38
2023-05-02T18:24:10.614Z,12.13
2023-05-02T18:29:12.484Z,27.08
2023-05-02T18:34:14.260Z,10.95
2023-05-02T18:39:16.179Z,10.13
2023-05-02T18:44:18.008Z,11.48
2023-05-02T18:49:20.409Z,7.85
2023-05-02T18:54:23.522Z,44.83
2023-05-02T18:59:25.368Z,9.90
2023-05-02T19:04:31.354Z,16.15
2023-05-02T19:09:33.266Z,11.57
2023-05-02T19:14:39.710Z,11.63
2023-05-02T19:19:41.908Z,9.40
2023-05-02T19:24:43.866Z,7.47
2023-05-02T19:29:47.144Z,9.93
2023-05-02T19:34:48.968Z,9.77
2023-05-02T19:39:50.716Z,6.55
2023-05-02T19:44:52.544Z,5.60
2023-05-02T19:49:54.742Z,9.95
2023-05-02T19:54:56.637Z,6.15
2023-05-02T19:59:58.409Z,7.97
2023-05-02T20:05:00.163Z,8.40
2023-05-02T20:10:02.401Z,8.27
2023-05-02T20:15:05.244Z,8.00
2023-05-02T20:20:08.451Z,8.90
2023-05-02T20:25:11.960Z,6.82
2023-05-02T20:30:13.872Z,5.43
2023-05-02T20:35:16.159Z,7.03
2023-05-02T20:40:19.125Z,11.90
2023-05-02T20:45:24.321Z,11.73
2023-05-02T20:50:26.590Z,12.38
2023-05-02T20:55:28.597Z,26.63
2023-05-02T21:00:30.471Z,15.65
2023-05-02T21:05:32.210Z,7.55
2023-05-02T21:10:34.291Z,12.50
2023-05-02T21:15:36.430Z,10.75
2023-05-02T21:20:39.688Z,7.80
2023-05-02T21:25:41.476Z,11.45
2023-05-02T21:30:43.292Z,13.15
2023-05-02T21:35:45.101Z,8.95
2023-05-02T21:40:46.916Z,10.32
2023-05-02T21:45:50.053Z,5.45
2023-05-02T21:50:51.861Z,7.40
2023-05-02T21:55:54.929Z,5.45
2023-05-02T22:00:57.245Z,9.10
2023-05-02T22:06:04.901Z,8.63
2023-05-02T22:11:10.682Z,8.60
2023-05-02T22:16:12.635Z,7.97
2023-05-02T22:21:15.955Z,6.13
2023-05-02T22:26:17.829Z,8.98
2023-05-02T22:31:19.758Z,6.72
2023-05-02T22:36:21.609Z,5.25
2023-05-02T22:41:23.482Z,10.57
2023-05-02T22:46:25.335Z,5.97
2023-05-02T22:51:27.240Z,9.18
2023-05-02T22:56:29.114Z,8.77
2023-05-02T23:01:31.156Z,6.88
2023-05-02T23:06:33.008Z,7.53
2023-05-02T23:11:34.848Z,6.75
2023-05-02T23:16:36.794Z,5.90
2023-05-02T23:21:38.590Z,5.53
2023-05-02T23:26:41.501Z,5.18
2023-05-02T23:31:43.835Z,5.07
2023-05-02T23:36:46.958Z,6.35
2023-05-02T23:41:48.764Z,6.25
2023-05-02T23:46:50.856Z,7.35
2023-05-02T23:51:52.679Z,7.93
2023-05-02T23:56:54.541Z,3.95
